Time;durP1;ratioP1;P1;durP2;ratioP2;P2;SDS_P1;SDS_P2;PMS_P1;PMS_P2;Temp;Humidity;BMP_temperature;BMP_pressure;BME280_temperature;BME280_humidity;BME280_pressure;Samples;Min_cycle;Max_cycle;Signal;HPM_P1;HPM_P2
2022/10/02 00:00:15;;;;;;;;;;;16.10;74.70;;;11.99;100.00;96102.31;4987901;28;19959;-48
2022/10/02 00:03:01;;;;;;;;;;;16.20;74.70;;;12.01;100.00;96112.75;4992674;28;20319;-50
2022/10/02 00:05:50;;;;;;;;;;;16.20;74.70;;;12.00;100.00;96109.28;4991779;28;20016;-49
2022/10/02 00:08:34;;;;;;;;;;;16.20;74.60;;;12.00;100.00;96101.25;4992669;28;19914;-48
2022/10/02 00:11:26;;;;;;;;;;;16.20;74.60;;;11.99;100.00;96094.28;5006989;28;20027;-48
2022/10/02 00:14:19;;;;;;;;;;;16.20;74.60;;;11.97;100.00;96098.28;4988035;28;19914;-50
2022/10/02 00:16:51;;;;;;;;;;;16.20;74.50;;;11.95;100.00;96105.78;4994277;28;19916;-49
2022/10/02 00:19:19;;;;;;;;;;;16.20;74.50;;;11.95;100.00;96106.56;4978651;28;19937;-50
2022/10/02 00:22:15;;;;;;;;;;;16.20;74.50;;;11.95;100.00;96111.91;4987890;28;19971;-48
2022/10/02 00:25:09;;;;;;;;;;;16.20;74.60;;;11.88;100.00;96114.00;5003293;28;19916;-52
2022/10/02 00:28:12;;;;;;;;;;;16.20;74.60;;;11.95;100.00;96117.25;4991205;28;20295;-50
2022/10/02 00:31:24;;;;;;;;;;;16.20;74.70;;;11.99;100.00;96120.19;4991425;28;19917;-48
2022/10/02 00:34:05;;;;;;;;;;;16.10;74.70;;;12.01;100.00;96123.41;4992129;28;19916;-53
2022/10/02 00:37:08;;;;;;;;;;;16.20;74.80;;;12.04;100.00;96121.03;4991228;28;19924;-51
2022/10/02 00:39:59;;;;;;;;;;;16.20;74.80;;;12.08;100.00;96120.50;4992196;28;20435;-48
2022/10/02 00:42:55;;;;;;;;;;;16.20;74.80;;;12.08;100.00;96121.31;4991138;28;19913;-51
2022/10/02 00:46:19;;;;;;;;;;;16.20;74.80;;;12.09;100.00;96122.91;4991554;28;19909;-50
2022/10/02 00:49:23;;;;;;;;;;;16.30;74.80;;;12.11;100.00;96115.44;5006318;28;20004;-48
2022/10/02 00:52:16;;;;;;;;;;;16.20;74.70;;;12.10;100.00;96116.53;4963573;28;19916;-49
2022/10/02 00:55:22;;;;;;;;;;;16.30;74.70;;;12.08;100.00;96115.97;4990526;28;19932;-49
2022/10/02 00:58:29;;;;;;;;;;;16.20;74.70;;;12.10;100.00;96127.19;4992503;28;19913;-51
2022/10/02 01:01:21;;;;;;;;;;;16.20;74.70;;;12.05;100.00;96124.50;4947687;28;19913;-54
2022/10/02 01:03:53;;;;;;;;;;;16.20;74.70;;;12.09;100.00;96135.44;4992308;28;20343;-55
2022/10/02 01:06:24;;;;;;;;;;;16.30;74.80;;;12.12;100.00;96141.06;5005604;28;19960;-53
2022/10/02 01:08:53;;;;;;;;;;;16.30;74.80;;;12.12;100.00;96140.28;5006877;28;19914;-54
2022/10/02 01:11:25;;;;;;;;;;;16.30;74.70;;;12.13;100.00;96126.69;4990634;28;19910;-52
2022/10/02 01:13:52;;;;;;;;;;;16.30;74.80;;;12.13;100.00;96121.34;4986567;28;19922;-54
2022/10/02 01:16:21;;;;;;;;;;;16.30;74.80;;;12.14;100.00;96128.28;4988138;28;19917;-53
2022/10/02 01:18:50;;;;;;;;;;;16.30;74.90;;;12.19;100.00;96130.16;4989927;28;19920;-53
2022/10/02 01:21:44;;;;;;;;;;;16.30;74.90;;;12.21;100.00;96134.16;4990041;28;20368;-52
2022/10/02 01:24:26;;;;;;;;;;;16.30;75.00;;;12.24;100.00;96138.19;4989053;28;20012;-52
2022/10/02 01:26:52;;;;;;;;;;;16.40;75.00;;;12.27;100.00;96130.47;4986285;28;20361;-49
2022/10/02 01:29:28;;;;;;;;;;;16.40;75.10;;;12.32;100.00;96134.22;4988010;28;20351;-54
2022/10/02 01:31:57;;;;;;;;;;;16.40;75.10;;;12.37;100.00;96129.69;4970647;28;19909;-53
2022/10/02 01:34:30;;;;;;;;;;;16.50;75.10;;;12.42;100.00;96128.91;4992660;28;19913;-48
2022/10/02 01:36:57;;;;;;;;;;;16.50;75.10;;;12.42;100.00;96135.06;5004065;28;20291;-51
2022/10/02 01:39:23;;;;;;;;;;;16.60;75.10;;;12.43;100.00;96130.50;5010882;28;20288;-49
2022/10/02 01:41:54;;;;;;;;;;;16.60;75.00;;;12.40;100.00;96128.38;5013033;28;19956;-52
2022/10/02 01:44:23;;;;;;;;;;;16.60;75.00;;;12.42;100.00;96128.91;4981600;28;19920;-54
2022/10/02 01:47:57;;;;;;;;;;;16.60;75.10;;;12.48;100.00;96133.22;4996191;28;19909;-52
2022/10/02 01:51:04;;;;;;;;;;;16.60;75.10;;;12.50;100.00;96142.56;4918799;29;19946;-48
2022/10/02 01:53:48;;;;;;;;;;;16.70;75.30;;;12.56;100.00;96139.91;5012273;28;19920;-53
2022/10/02 01:56:56;;;;;;;;;;;16.70;75.30;;;12.59;100.00;96140.16;5013472;28;19909;-51
2022/10/02 01:59:37;;;;;;;;;;;16.70;76.00;;;12.62;100.00;96134.31;4996467;28;19909;-51
2022/10/02 02:02:49;;;;;;;;;;;16.80;75.20;;;12.64;100.00;96134.84;5014569;28;20427;-51
2022/10/02 02:06:01;;;;;;;;;;;16.80;75.20;;;12.66;100.00;96137.25;4996913;28;20394;-53
2022/10/02 02:09:04;;;;;;;;;;;16.80;75.10;;;12.66;100.00;96130.06;4977837;28;20509;-51
2022/10/02 02:11:45;;;;;;;;;;;16.90;75.10;;;12.66;100.00;96126.56;4992977;28;19952;-49
2022/10/02 02:14:47;;;;;;;;;;;16.80;75.00;;;12.69;100.00;96134.03;4991734;28;19996;-54
2022/10/02 02:17:47;;;;;;;;;;;16.90;75.10;;;12.69;100.00;96126.84;4976931;28;19917;-50
2022/10/02 02:20:27;;;;;;;;;;;16.80;74.90;;;12.71;100.00;96126.56;4943927;28;19909;-48
2022/10/02 02:23:03;;;;;;;;;;;16.90;75.00;;;12.73;100.00;96129.78;4994921;28;19913;-48
2022/10/02 02:25:36;;;;;;;;;;;16.90;75.00;;;12.74;100.00;96128.72;4997148;28;19909;-52
2022/10/02 02:28:11;;;;;;;;;;;16.90;75.00;;;12.74;100.00;96129.53;4993399;28;19909;-50
2022/10/02 02:30:46;;;;;;;;;;;17.00;75.00;;;12.78;100.00;96115.63;5008721;28;19963;-49
2022/10/02 02:33:43;;;;;;;;;;;17.00;75.00;;;12.79;100.00;96111.91;4996488;28;20306;-50
2022/10/02 02:36:22;;;;;;;;;;;17.00;74.90;;;12.74;100.00;96110.81;5018586;23;20290;-48
2022/10/02 02:39:01;;;;;;;;;;;17.00;75.00;;;12.77;100.00;96106.00;4993557;28;19913;-50
2022/10/02 02:41:52;;;;;;;;;;;17.00;75.00;;;12.78;100.00;96099.59;4990019;28;19913;-50
2022/10/02 02:44:32;;;;;;;;;;;17.00;75.00;;;12.75;100.00;96103.59;4983053;28;19909;-49
2022/10/02 02:47:23;;;;;;;;;;;17.00;75.00;;;12.78;100.00;96103.06;4993450;28;19920;-48
2022/10/02 02:50:30;;;;;;;;;;;17.00;75.10;;;12.78;100.00;96111.06;4973639;28;19910;-48
2022/10/02 02:53:40;;;;;;;;;;;17.00;75.10;;;12.78;100.00;96116.41;4983235;28;19910;-49
2022/10/02 02:56:16;;;;;;;;;;;17.00;75.20;;;12.78;100.00;96116.41;4995388;28;19909;-48
2022/10/02 02:59:07;;;;;;;;;;;17.00;75.20;;;12.82;100.00;96127.41;4996214;28;19912;-52
2022/10/02 03:01:41;;;;;;;;;;;17.00;75.30;;;12.85;100.00;96118.84;4983082;28;19961;-50
2022/10/02 03:04:12;;;;;;;;;;;17.00;75.20;;;12.86;100.00;96115.91;4993831;28;19931;-49
2022/10/02 03:06:50;;;;;;;;;;;17.00;75.20;;;12.89;100.00;96118.06;4974903;28;20371;-48
2022/10/02 03:09:31;;;;;;;;;;;17.10;75.30;;;12.92;100.00;96122.06;4969866;28;19921;-48
2022/10/02 03:12:53;;;;;;;;;;;17.10;75.30;;;12.96;100.00;96117.78;4963765;28;19913;-49
2022/10/02 03:15:54;;;;;;;;;;;17.10;75.20;;;12.95;100.00;96110.84;4977082;28;19909;-50
2022/10/02 03:18:53;;;;;;;;;;;17.10;75.20;;;12.98;100.00;96114.88;4984418;28;19909;-52
2022/10/02 03:21:56;;;;;;;;;;;17.20;75.30;;;13.06;100.00;96122.34;5013186;28;19965;-49
2022/10/02 03:24:30;;;;;;;;;;;17.20;75.20;;;13.05;100.00;96113.53;4968792;28;20020;-48
2022/10/02 03:27:46;;;;;;;;;;;17.20;75.20;;;13.03;100.00;96107.63;4991777;28;19913;-48
2022/10/02 03:30:20;;;;;;;;;;;17.20;75.10;;;13.01;100.00;96109.00;4930841;29;19914;-48
2022/10/02 03:32:52;;;;;;;;;;;17.20;75.00;;;13.03;100.00;96107.63;4969732;28;20434;-50
2022/10/02 03:35:22;;;;;;;;;;;17.20;75.00;;;13.00;100.00;96107.34;4969807;28;19964;-48
2022/10/02 03:38:00;;;;;;;;;;;17.20;75.00;;;13.02;100.00;96114.06;4975679;28;19917;-50
2022/10/02 03:40:26;;;;;;;;;;;17.20;74.90;;;13.02;100.00;96106.03;4973748;28;19909;-48
2022/10/02 03:43:00;;;;;;;;;;;17.20;74.90;;;13.01;100.00;96109.78;4970514;28;19918;-49
2022/10/02 03:45:28;;;;;;;;;;;17.20;74.90;;;13.02;100.00;96100.69;4968899;28;19910;-53
2022/10/02 03:47:54;;;;;;;;;;;17.20;74.80;;;13.03;100.00;96104.16;4973147;28;19909;-50
2022/10/02 03:50:20;;;;;;;;;;;17.20;74.80;;;13.01;100.00;96109.78;4991441;28;19909;-51
2022/10/02 03:52:52;;;;;;;;;;;17.20;74.80;;;12.99;100.00;96108.44;4991937;28;19945;-49
2022/10/02 03:55:39;;;;;;;;;;;17.20;74.80;;;12.94;100.00;96106.53;4972048;28;19909;-48
2022/10/02 03:58:25;;;;;;;;;;;17.20;74.80;;;12.87;100.00;96108.69;4968590;28;20460;-48
2022/10/02 04:01:25;;;;;;;;;;;17.20;74.80;;;12.91;100.00;96109.75;4968947;28;19917;-48
2022/10/02 04:04:16;;;;;;;;;;;17.20;74.80;;;12.84;100.00;96107.34;4967437;28;19910;-48
2022/10/02 04:07:11;;;;;;;;;;;17.10;74.80;;;12.82;100.00;96111.38;4967174;28;19929;-48
2022/10/02 04:10:12;;;;;;;;;;;17.10;74.80;;;12.82;100.00;96114.06;4968233;28;19917;-50
2022/10/02 04:12:49;;;;;;;;;;;17.10;74.90;;;12.78;100.00;96111.06;4964685;28;19909;-48
2022/10/02 04:15:48;;;;;;;;;;;17.10;74.90;;;12.82;100.00;96122.88;4972745;28;19968;-48
2022/10/02 04:18:51;;;;;;;;;;;17.10;74.90;;;12.83;100.00;96121.00;4967499;28;19961;-48
2022/10/02 04:21:34;;;;;;;;;;;17.10;75.00;;;12.83;100.00;96116.44;4969287;28;19925;-49
2022/10/02 04:24:37;;;;;;;;;;;17.10;75.00;;;12.85;100.00;96103.63;4976625;28;19910;-49
2022/10/02 04:27:30;;;;;;;;;;;17.00;75.00;;;12.89;100.00;96112.72;4963395;28;19913;-48
2022/10/02 04:30:18;;;;;;;;;;;17.00;75.00;;;12.85;100.00;96108.13;4971462;28;19920;-48
2022/10/02 04:32:44;;;;;;;;;;;17.10;75.10;;;12.85;100.00;96114.31;4972694;28;19910;-48
2022/10/02 04:35:29;;;;;;;;;;;17.10;75.10;;;12.85;100.00;96106.28;4969774;28;20463;-49
2022/10/02 04:38:42;;;;;;;;;;;17.00;75.00;;;12.83;100.00;96104.94;4987458;28;19948;-48
2022/10/02 04:41:26;;;;;;;;;;;17.00;75.00;;;12.82;100.00;96098.00;4966759;28;20418;-48
2022/10/02 04:44:10;;;;;;;;;;;17.00;75.70;;;12.81;100.00;96099.06;4962358;28;20041;-51
2022/10/02 04:47:10;;;;;;;;;;;17.00;74.90;;;12.75;100.00;96095.56;4990810;28;19913;-50
2022/10/02 04:50:40;;;;;;;;;;;17.00;74.90;;;12.72;100.00;96091.56;4960126;28;19909;-49
2022/10/02 04:54:03;;;;;;;;;;;17.00;74.90;;;12.65;100.00;96092.88;4961179;28;19914;-48
2022/10/02 04:56:47;;;;;;;;;;;17.00;75.00;;;12.66;100.00;96089.97;4952686;28;19996;-49
2022/10/02 04:59:45;;;;;;;;;;;16.90;75.10;;;12.64;100.00;96088.63;4965891;28;19914;-48
2022/10/02 05:02:45;;;;;;;;;;;16.90;75.10;;;12.64;100.00;96083.28;4969394;28;20296;-48
2022/10/02 05:05:36;;;;;;;;;;;16.90;75.10;;;12.63;100.00;96087.00;4982219;28;19910;-49
2022/10/02 05:08:29;;;;;;;;;;;16.90;75.20;;;12.62;100.00;96086.19;4972343;28;20108;-48
2022/10/02 05:11:29;;;;;;;;;;;16.90;75.20;;;12.66;100.00;96089.13;4985534;28;20276;-48
2022/10/02 05:14:29;;;;;;;;;;;16.90;75.30;;;12.67;100.00;96104.94;4972255;28;20000;-48
2022/10/02 05:17:51;;;;;;;;;;;16.90;75.30;;;12.70;100.00;96096.38;4985686;28;19910;-48
2022/10/02 05:20:41;;;;;;;;;;;16.90;75.30;;;12.73;100.00;96098.53;4972305;28;19909;-48
2022/10/02 05:23:39;;;;;;;;;;;16.90;75.30;;;12.77;100.00;96100.66;4971070;28;19968;-49
2022/10/02 05:26:51;;;;;;;;;;;16.90;75.30;;;12.77;100.00;96100.66;4986306;28;19913;-48
2022/10/02 05:29:44;;;;;;;;;;;16.90;75.30;;;12.78;100.00;96097.72;4967393;28;19910;-48
2022/10/02 05:32:40;;;;;;;;;;;17.00;75.30;;;12.78;100.00;96102.25;4986611;28;20004;-50
2022/10/02 05:35:42;;;;;;;;;;;17.00;75.30;;;12.81;100.00;96094.50;4976874;28;20004;-48
2022/10/02 05:38:51;;;;;;;;;;;17.00;75.30;;;12.80;100.00;96092.91;4991165;28;19909;-48
2022/10/02 05:42:02;;;;;;;;;;;17.00;75.20;;;12.84;100.00;96099.31;4989906;28;20342;-48
2022/10/02 05:44:44;;;;;;;;;;;17.10;75.30;;;12.85;100.00;96092.94;4991063;28;19975;-48
2022/10/02 05:47:40;;;;;;;;;;;17.10;75.30;;;12.87;100.00;96092.66;4973208;28;20008;-48
2022/10/02 05:50:20;;;;;;;;;;;17.10;75.20;;;12.89;100.00;96085.16;4974314;28;19963;-49
2022/10/02 05:52:46;;;;;;;;;;;17.10;75.20;;;12.93;100.00;96080.88;4989725;28;19909;-49
2022/10/02 05:55:39;;;;;;;;;;;17.20;75.10;;;12.97;100.00;96087.28;4986147;28;19913;-48
2022/10/02 05:58:34;;;;;;;;;;;17.20;75.10;;;12.94;100.00;96077.97;4964055;28;19909;-48
2022/10/02 06:01:26;;;;;;;;;;;17.20;74.90;;;12.96;100.00;96080.34;4989321;28;20376;-48
2022/10/02 06:04:26;;;;;;;;;;;17.30;75.00;;;12.94;100.00;96088.66;4991021;28;19920;-48
2022/10/02 06:06:59;;;;;;;;;;;17.30;74.90;;;12.94;100.00;96088.66;4950170;28;22479;-48
2022/10/02 06:09:51;;;;;;;;;;;17.30;75.00;;;13.02;100.00;96091.84;4917830;28;19924;-48
2022/10/02 06:12:29;;;;;;;;;;;17.40;74.90;;;13.09;100.00;96095.06;4963493;28;19914;-48
2022/10/02 06:15:35;;;;;;;;;;;17.50;74.80;;;13.13;100.00;96088.09;4962630;28;20350;-49
2022/10/02 06:18:14;;;;;;;;;;;17.50;74.80;;;13.21;100.00;96090.25;4981236;28;19910;-48
2022/10/02 06:21:06;;;;;;;;;;;17.60;75.20;;;13.26;100.00;96090.28;4986610;28;20410;-48
2022/10/02 06:23:42;;;;;;;;;;;17.70;74.70;;;13.31;100.00;96090.25;4966978;28;19913;-49
2022/10/02 06:26:38;;;;;;;;;;;17.70;74.70;;;13.36;100.00;96087.59;4969751;28;20007;-49
2022/10/02 06:29:38;;;;;;;;;;;17.70;74.60;;;13.40;100.00;96091.31;4997750;28;19917;-48
2022/10/02 06:32:28;;;;;;;;;;;17.80;74.60;;;13.45;100.00;96089.72;4991393;28;19915;-48
2022/10/02 06:34:55;;;;;;;;;;;17.90;74.60;;;13.50;100.00;96095.06;4973909;28;19921;-48
2022/10/02 06:38:12;;;;;;;;;;;17.90;74.50;;;13.52;100.00;96087.56;4988536;28;20262;-48
2022/10/02 06:41:23;;;;;;;;;;;18.00;74.40;;;13.54;100.00;96088.91;4965208;28;19917;-49
2022/10/02 06:44:15;;;;;;;;;;;18.00;74.40;;;13.62;100.00;96088.34;4960825;28;20355;-50
2022/10/02 06:47:22;;;;;;;;;;;18.00;74.30;;;13.67;100.00;96087.53;4982103;28;19961;-52
2022/10/02 06:50:18;;;;;;;;;;;18.10;74.40;;;13.73;100.00;96093.69;4981207;28;19917;-48
2022/10/02 06:53:26;;;;;;;;;;;18.20;74.30;;;13.83;100.00;96086.41;5000918;28;19924;-51
2022/10/02 06:56:36;;;;;;;;;;;18.40;74.40;;;13.89;100.00;96090.69;4993994;28;20290;-50
2022/10/02 06:59:54;;;;;;;;;;;18.50;74.30;;;14.03;100.00;96098.94;4993255;28;19925;-48
2022/10/02 07:02:51;;;;;;;;;;;18.60;74.10;;;14.05;100.00;96101.34;5004775;28;19917;-52
2022/10/02 07:05:29;;;;;;;;;;;18.70;74.00;;;14.12;100.00;96099.97;4985452;28;19909;-48
2022/10/02 07:08:35;;;;;;;;;;;18.80;74.00;;;14.16;100.00;96091.38;5005302;28;19916;-48
2022/10/02 07:11:28;;;;;;;;;;;18.80;73.90;;;14.22;100.00;96084.94;4995874;28;19913;-48
2022/10/02 07:14:14;;;;;;;;;;;18.80;73.90;;;14.31;100.00;96085.97;5001674;28;19912;-52
2022/10/02 07:17:14;;;;;;;;;;;18.90;73.80;;;14.22;99.35;96096.44;4991432;28;20372;-48
2022/10/02 07:20:10;;;;;;;;;;;19.00;73.70;;;14.24;99.27;96096.97;4995045;28;20208;-48
2022/10/02 07:22:45;;;;;;;;;;;19.00;73.50;;;14.29;99.41;96086.25;4990619;28;19971;-48
2022/10/02 07:25:36;;;;;;;;;;;19.00;73.40;;;14.31;98.67;96085.97;4993345;28;19944;-48
2022/10/02 07:28:11;;;;;;;;;;;19.00;73.30;;;14.24;98.58;96090.81;4978998;28;19913;-48
2022/10/02 07:31:27;;;;;;;;;;;19.00;73.20;;;14.32;99.19;96093.75;4985973;28;19909;-49
2022/10/02 07:34:39;;;;;;;;;;;19.10;73.30;;;14.41;98.95;96088.56;4988745;28;19928;-49
2022/10/02 07:37:45;;;;;;;;;;;19.20;73.20;;;14.52;98.54;96095.53;4942329;28;20340;-48
2022/10/02 07:40:59;;;;;;;;;;;19.30;73.20;;;14.62;98.30;96088.50;4964039;28;19910;-48
2022/10/02 07:43:30;;;;;;;;;;;19.40;73.20;;;14.64;97.59;96089.84;4961649;28;19914;-50
2022/10/02 07:46:18;;;;;;;;;;;19.40;73.10;;;14.76;97.87;96079.56;4952255;28;19920;-48
2022/10/02 07:49:21;;;;;;;;;;;19.50;73.00;;;14.83;96.75;96076.56;4978856;28;19956;-49
2022/10/02 07:52:39;;;;;;;;;;;19.70;72.90;;;14.99;97.00;96071.91;4960141;28;19918;-48
2022/10/02 07:55:23;;;;;;;;;;;19.90;72.70;;;15.14;95.28;96074.47;4949947;28;20005;-48
2022/10/02 07:58:08;;;;;;;;;;;20.10;72.70;;;15.23;96.12;96074.63;4972215;28;19910;-50
2022/10/02 08:01:19;;;;;;;;;;;20.30;73.30;;;15.46;95.21;96079.25;4961903;28;20281;-49
2022/10/02 08:04:07;;;;;;;;;;;20.60;72.30;;;15.56;93.90;96085.63;4882617;29;19914;-48
2022/10/02 08:06:35;;;;;;;;;;;20.70;72.20;;;15.60;93.59;96078.59;4883907;29;20018;-48
2022/10/02 08:09:40;;;;;;;;;;;20.70;72.00;;;15.59;93.58;96080.47;4894545;29;19918;-49
2022/10/02 08:12:27;;;;;;;;;;;20.70;71.80;;;15.67;93.40;96077.22;4893307;29;19911;-48
2022/10/02 08:14:55;;;;;;;;;;;20.80;71.70;;;15.74;93.15;96068.81;4893847;29;19923;-48
2022/10/02 08:17:48;;;;;;;;;;;20.90;71.50;;;15.75;92.04;96069.59;4893533;29;19911;-49
2022/10/02 08:20:37;;;;;;;;;;;21.00;71.50;;;15.83;92.27;96063.63;4876713;29;19918;-48
2022/10/02 08:23:46;;;;;;;;;;;21.10;71.30;;;15.74;93.28;96074.19;4893913;29;19915;-49
2022/10/02 08:26:45;;;;;;;;;;;21.20;71.00;;;15.91;92.65;96071.03;4885024;29;20406;-48
2022/10/02 08:29:27;;;;;;;;;;;21.20;70.80;;;16.03;92.31;96073.31;4892980;29;20010;-48
2022/10/02 08:31:55;;;;;;;;;;;21.40;70.70;;;16.07;91.51;96069.75;4894326;29;19917;-48
2022/10/02 08:34:24;;;;;;;;;;;21.40;70.70;;;16.25;91.05;96075.47;4902649;28;19911;-48
2022/10/02 08:37:28;;;;;;;;;;;21.60;70.60;;;16.36;91.33;96068.88;5044426;23;19920;-49
2022/10/02 08:40:40;;;;;;;;;;;21.80;70.50;;;16.45;90.12;96067.13;5012305;28;19923;-49
2022/10/02 08:43:43;;;;;;;;;;;21.90;70.20;;;16.46;89.13;96076.81;5050097;28;19958;-50
2022/10/02 08:46:45;;;;;;;;;;;21.90;70.20;;;16.39;89.89;96063.72;5045285;28;20272;-49
2022/10/02 08:49:51;;;;;;;;;;;21.90;70.00;;;16.55;89.50;96061.63;5011734;28;20003;-51
2022/10/02 08:52:53;;;;;;;;;;;21.90;69.90;;;16.71;87.91;96062.19;5033857;28;19917;-51
2022/10/02 08:56:12;;;;;;;;;;;21.90;70.10;;;16.71;87.50;96056.03;5024488;28;19916;-50
2022/10/02 08:59:08;;;;;;;;;;;21.90;70.20;;;16.63;88.43;96065.53;5030682;28;19935;-50
2022/10/02 09:02:31;;;;;;;;;;;22.00;69.90;;;16.61;88.67;96057.78;5038424;28;19943;-50
2022/10/02 09:06:03;;;;;;;;;;;22.00;69.50;;;16.59;88.68;96056.47;5042319;28;19962;-49
2022/10/02 09:09:28;;;;;;;;;;;22.00;69.20;;;16.62;90.22;96066.63;5029478;28;19978;-49
2022/10/02 09:12:27;;;;;;;;;;;22.00;69.10;;;16.53;91.36;96060.31;5036301;28;19912;-50
2022/10/02 09:15:19;;;;;;;;;;;22.10;68.80;;;16.53;91.11;96060.31;5050039;28;19915;-50
2022/10/02 09:18:17;;;;;;;;;;;22.10;68.60;;;16.34;91.35;96057.59;5011702;28;19995;-52
2022/10/02 09:20:47;;;;;;;;;;;22.20;68.00;;;16.56;90.34;96052.44;5030738;28;19908;-53
2022/10/02 09:23:51;;;;;;;;;;;22.30;68.00;;;16.63;89.22;96050.19;5011993;28;19924;-51
2022/10/02 09:27:22;;;;;;;;;;;22.40;67.90;;;16.62;88.62;96053.97;5036669;28;19908;-51
2022/10/02 09:30:26;;;;;;;;;;;22.50;67.60;;;16.57;89.48;96055.94;5030255;28;20001;-52
2022/10/02 09:33:43;;;;;;;;;;;22.50;67.20;;;16.65;90.23;96058.78;4994082;28;23826;-52
2022/10/02 09:37:03;;;;;;;;;;;22.40;67.20;;;16.55;90.55;96061.63;5032396;28;19943;-53
2022/10/02 09:40:07;;;;;;;;;;;22.20;67.20;;;16.40;90.45;96038.44;5032558;28;20281;-50
2022/10/02 09:43:16;;;;;;;;;;;22.00;67.30;;;16.32;90.89;96044.44;5048555;28;19919;-51
2022/10/02 09:46:20;;;;;;;;;;;21.90;67.30;;;16.23;92.15;96043.50;5014397;28;19944;-54
2022/10/02 09:49:13;;;;;;;;;;;21.80;67.40;;;16.22;94.17;96041.09;5045368;28;19908;-53
2022/10/02 09:51:57;;;;;;;;;;;21.70;67.30;;;16.26;94.44;96048.28;5050370;28;20307;-50
2022/10/02 09:54:32;;;;;;;;;;;21.60;67.50;;;16.21;95.87;96039.50;5036117;28;19909;-51
2022/10/02 09:57:37;;;;;;;;;;;21.50;67.80;;;16.09;96.22;96046.09;5028736;28;19909;-51
2022/10/02 10:00:30;;;;;;;;;;;21.20;67.90;;;15.96;97.68;96055.66;5018491;28;19999;-51
2022/10/02 10:03:35;;;;;;;;;;;21.00;68.30;;;15.79;99.54;96046.47;5033095;28;20268;-52
2022/10/02 10:06:35;;;;;;;;;;;20.70;68.60;;;15.60;100.00;96047.16;5033254;28;20336;-52
2022/10/02 10:09:53;;;;;;;;;;;20.50;69.00;;;15.44;100.00;96048.41;5040287;28;19950;-50
2022/10/02 10:13:08;;;;;;;;;;;20.30;69.30;;;15.30;100.00;96053.66;5040799;28;19909;-50
2022/10/02 10:16:10;;;;;;;;;;;20.10;69.50;;;15.19;100.00;96047.56;5039856;28;19940;-54
2022/10/02 10:19:03;;;;;;;;;;;20.00;69.80;;;15.14;100.00;96052.19;5037745;28;19939;-56
2022/10/02 10:22:03;;;;;;;;;;;19.90;70.10;;;14.98;100.00;96040.78;5033908;28;19912;-53
2022/10/02 10:25:09;;;;;;;;;;;19.80;70.40;;;14.89;100.00;96042.47;5009401;28;19962;-53
2022/10/02 10:28:23;;;;;;;;;;;19.70;70.60;;;14.90;100.00;96038.69;5033904;28;19952;-51
2022/10/02 10:31:30;;;;;;;;;;;19.80;70.70;;;15.03;100.00;96032.69;5049525;28;19915;-50
2022/10/02 10:34:44;;;;;;;;;;;19.90;70.70;;;15.19;100.00;96036.03;5052854;28;19909;-51
2022/10/02 10:41:20;;;;;;;;;;;20.30;70.60;;;15.36;100.00;96016.84;5052836;28;19934;-53
2022/10/02 10:44:27;;;;;;;;;;;20.50;70.40;;;15.44;100.00;96016.19;5000594;28;19913;-52
2022/10/02 10:47:17;;;;;;;;;;;20.60;70.20;;;15.57;100.00;96020.09;4998212;28;19947;-51
2022/10/02 10:50:24;;;;;;;;;;;20.70;70.20;;;15.60;100.00;96031.06;5041417;28;19994;-52
2022/10/02 10:53:22;;;;;;;;;;;20.80;70.20;;;15.81;100.00;96028.19;5018924;28;20378;-52
2022/10/02 10:56:10;;;;;;;;;;;20.90;70.10;;;15.85;100.00;96027.31;5026727;28;19908;-54
2022/10/02 10:59:06;;;;;;;;;;;21.10;70.10;;;15.72;100.00;96022.63;5017039;28;20526;-52
2022/10/02 11:02:02;;;;;;;;;;;21.10;69.80;;;15.83;100.00;96026.00;5015092;28;19917;-50
2022/10/02 11:04:59;;;;;;;;;;;21.20;69.60;;;15.88;99.96;96028.63;4945561;28;20313;-52
2022/10/02 11:08:19;;;;;;;;;;;21.40;69.60;;;16.09;100.00;96029.19;5012634;28;19995;-50
2022/10/02 11:11:01;;;;;;;;;;;21.50;69.30;;;16.09;98.98;96024.59;5052879;28;20294;-51
2022/10/02 11:14:18;;;;;;;;;;;21.70;69.20;;;16.34;97.87;96019.97;5030037;28;19909;-53
2022/10/02 11:17:09;;;;;;;;;;;21.90;69.00;;;16.25;97.53;96013.66;5028603;28;20011;-50
2022/10/02 11:20:21;;;;;;;;;;;21.90;68.80;;;16.24;96.80;96015.53;5032781;28;19913;-50
2022/10/02 11:23:07;;;;;;;;;;;22.00;68.70;;;16.49;97.88;96008.22;5013861;28;19965;-52
2022/10/02 11:26:20;;;;;;;;;;;22.10;68.70;;;16.59;96.96;96003.47;5042460;28;20007;-52
2022/10/02 11:29:40;;;;;;;;;;;22.20;68.70;;;16.79;95.45;95999.69;5021876;28;20367;-51
2022/10/02 11:32:50;;;;;;;;;;;22.40;68.70;;;17.15;94.55;96003.69;5029585;28;19913;-54
2022/10/02 11:36:07;;;;;;;;;;;22.80;68.70;;;17.44;92.49;96000.75;5016861;28;19920;-51
2022/10/02 11:39:27;;;;;;;;;;;23.40;68.20;;;18.22;89.45;95993.53;5041108;28;19916;-49
2022/10/02 11:42:49;;;;;;;;;;;24.50;67.70;;;18.38;87.47;95986.69;5030907;28;19962;-49
2022/10/02 11:45:42;;;;;;;;;;;25.20;66.80;;;18.56;85.81;95978.75;5040195;28;19963;-50
2022/10/02 11:48:21;;;;;;;;;;;25.40;66.10;;;18.79;84.46;95980.38;5023534;28;19908;-50
2022/10/02 11:51:26;;;;;;;;;;;25.80;65.60;;;18.73;84.42;95971.59;5017746;28;19916;-50
2022/10/02 11:54:58;;;;;;;;;;;25.90;64.60;;;18.66;83.57;95976.59;5027743;28;19919;-53
2022/10/02 11:57:52;;;;;;;;;;;26.00;64.00;;;18.79;83.20;95977.69;4999754;28;19909;-51
2022/10/02 12:00:54;;;;;;;;;;;25.90;63.40;;;18.84;82.05;95985.66;5037956;28;19909;-50
2022/10/02 12:04:04;;;;;;;;;;;25.70;63.40;;;18.78;82.67;95984.19;5050649;28;20321;-54
2022/10/02 12:07:17;;;;;;;;;;;25.40;63.40;;;18.81;82.81;95966.59;4991422;28;19921;-50
2022/10/02 12:10:43;;;;;;;;;;;25.60;63.40;;;19.13;80.47;95965.50;5053040;28;19999;-50
2022/10/02 12:13:25;;;;;;;;;;;26.00;63.10;;;18.92;80.74;95966.00;5035391;28;19908;-52
2022/10/02 12:16:17;;;;;;;;;;;26.30;62.10;;;18.80;79.99;95962.28;5030219;28;19955;-50
2022/10/02 12:19:10;;;;;;;;;;;26.30;61.40;;;18.86;81.11;95961.06;5031390;28;20298;-52
2022/10/02 12:29:09;;;;;;;;;;;26.80;60.90;;;19.39;77.13;95973.72;5047646;28;19921;-50
2022/10/02 12:31:52;;;;;;;;;;;26.80;60.30;;;19.37;77.26;95951.66;5033766;28;19915;-53
2022/10/02 12:34:37;;;;;;;;;;;26.80;59.70;;;19.30;76.28;95943.97;5052843;28;20356;-55
2022/10/02 12:37:47;;;;;;;;;;;26.80;59.20;;;19.40;78.26;95941.03;5048481;28;19958;-52
2022/10/02 12:41:02;;;;;;;;;;;26.90;59.00;;;19.41;74.78;95923.69;4996477;28;19917;-56
2022/10/02 12:43:44;;;;;;;;;;;27.00;58.80;;;19.55;76.08;95939.00;5035989;28;19916;-49
2022/10/02 12:46:48;;;;;;;;;;;26.90;58.80;;;19.30;76.25;95935.88;5030341;28;20294;-52
2022/10/02 12:49:33;;;;;;;;;;;26.70;58.40;;;19.21;76.58;95936.94;5049889;28;19945;-53
2022/10/02 12:52:42;;;;;;;;;;;26.40;58.40;;;19.24;76.30;95934.44;5020027;28;20058;-53
2022/10/02 12:55:32;;;;;;;;;;;26.30;58.40;;;19.25;74.88;95925.22;5032956;28;19916;-53
2022/10/02 12:58:31;;;;;;;;;;;26.30;58.40;;;19.22;75.82;95928.53;5050196;28;20366;-52
2022/10/02 13:01:45;;;;;;;;;;;26.20;58.10;;;19.33;75.47;95926.34;5041680;28;20112;-51
2022/10/02 13:04:16;;;;;;;;;;;26.20;58.10;;;19.47;73.61;95918.94;4993242;28;26670;-54
2022/10/02 13:07:29;;;;;;;;;;;26.30;58.10;;;19.68;73.98;95910.28;5047276;28;19912;-53
2022/10/02 13:10:26;;;;;;;;;;;26.50;57.80;;;19.83;73.89;95907.94;5037879;28;19912;-55
2022/10/02 13:13:20;;;;;;;;;;;26.90;57.40;;;20.22;70.40;95900.81;5024649;28;19912;-52
2022/10/02 13:16:28;;;;;;;;;;;27.70;57.20;;;20.86;70.16;95910.16;5052072;28;19915;-55
2022/10/02 13:19:29;;;;;;;;;;;28.50;56.50;;;20.54;71.33;95902.25;5035152;28;19912;-54
2022/10/02 13:22:54;;;;;;;;;;;28.80;55.30;;;20.63;68.73;95902.25;5051080;28;19932;-56
2022/10/02 13:25:33;;;;;;;;;;;28.90;54.40;;;20.78;69.68;95919.91;5009794;28;19916;-53